map of QGU home
QGU - Airport
Location
City:  Gifu, Gifu, Japan
Name:Gifu Air Airfield
Old (Alt.):JASDF
ICAO:RJNG
IATA:QGU

Details
Type:Airport (Aerodrome, Airfield)
Use:Military
Latitude:3523'39"N (35.394078)
Longitude:13652'11"E (136.869667)
Datum:WGS 1984
Elevation:128 ft (39 m)
Variation:7.82W (WMM2015 magnetic declination)
-0.06 annual change
Runways:1
Longest:8860 × 150 ft (2701 × 45.5 m), paved

Time
Time Zone:UTC+9
Local Time:

Weather
METAR:RJNG 180245Z 34016G28KT 310V010 9999 FEW030 09/M06 Q1021 RMK 1CU030 A3016

Related Locations
Nearby:
Farthest:SSMT: 11901 mi / 19153 km
Mostardas, RS, BR

Find:

   beyond  
but within

Other Information
Maps:
NOTAMs:
Links:
Sources:

  
  • flag of Japan
  • flag of Gifu
  

Sectional Chart

Flight Planning
at skyvector.com

Satellite Image

Google Maps Satellite view

 

Copyright © 2004-2019 Karl L. Swartz. All rights reserved.
The Great Circle Mapper name and logo are trademarks of the Great Circle Mapper.
All other trademarks mentioned herein belong to their respective owners.
Please see credits for attibutions and further copyright information.

  Follow gcmap on Facebook Follow gcmap on Twitter Follow gcmap on Google+ GCmap on LinkedIn

hCard Microformat

Geo Microformat